createdAt,value
2023-04-12T00:04:14.813Z,7.73
2023-04-12T00:09:16.523Z,7.55
2023-04-12T00:14:18.111Z,7.66
2023-04-12T00:19:19.765Z,7.77
2023-04-12T00:24:21.332Z,7.72
2023-04-12T00:29:22.932Z,7.66
2023-04-12T00:34:24.633Z,7.47
2023-04-12T00:39:26.654Z,7.53
2023-04-12T00:44:28.296Z,7.46
2023-04-12T00:49:30.972Z,7.41
2023-04-12T00:54:34.758Z,6.99
2023-04-12T00:59:36.387Z,7.38
2023-04-12T01:04:38.741Z,7.55
2023-04-12T01:09:40.521Z,7.57
2023-04-12T01:14:52.194Z,7.37
2023-04-12T01:19:57.773Z,7.25
2023-04-12T01:25:11.267Z,6.86
2023-04-12T01:30:17.084Z,6.83
2023-04-12T01:35:21.673Z,6.97
2023-04-12T01:40:24.365Z,7.09
2023-04-12T01:45:27.498Z,7.10
2023-04-12T01:50:35.376Z,7.11
2023-04-12T01:55:40.081Z,7.03
2023-04-12T02:00:43.980Z,6.91
2023-04-12T02:05:46.085Z,6.76
2023-04-12T02:10:47.685Z,6.27
2023-04-12T02:15:49.722Z,6.93
2023-04-12T02:20:51.331Z,6.59
2023-04-12T02:25:52.959Z,6.76
2023-04-12T02:30:54.603Z,6.72
2023-04-12T02:35:57.492Z,6.38
2023-04-12T02:40:59.114Z,6.34
2023-04-12T02:46:00.955Z,6.03
2023-04-12T02:51:02.645Z,6.21
2023-04-12T02:56:06.726Z,6.46
2023-04-12T03:01:08.474Z,6.36
2023-04-12T03:06:10.880Z,6.50
2023-04-12T03:11:12.436Z,6.38
2023-04-12T03:16:23.626Z,6.69
2023-04-12T03:21:26.043Z,6.45
2023-04-12T03:26:27.819Z,6.47
2023-04-12T03:31:29.502Z,6.43
2023-04-12T03:36:31.436Z,6.43
2023-04-12T03:41:34.223Z,6.50
2023-04-12T03:46:35.987Z,6.29
2023-04-12T03:51:42.856Z,5.95
2023-04-12T03:56:46.083Z,5.92
2023-04-12T04:01:48.156Z,6.26
2023-04-12T04:06:50.659Z,6.14
2023-04-12T04:11:52.186Z,6.19
2023-04-12T04:16:55.299Z,6.31
2023-04-12T04:21:56.900Z,5.93
2023-04-12T04:26:58.864Z,6.25
2023-04-12T04:32:02.228Z,6.12
2023-04-12T04:37:04.267Z,5.80
2023-04-12T04:42:06.870Z,6.06
2023-04-12T04:47:08.806Z,6.15
2023-04-12T04:52:10.771Z,6.08
2023-04-12T04:57:12.380Z,6.19
2023-04-12T05:02:14.065Z,6.06
2023-04-12T05:07:15.937Z,5.99
2023-04-12T05:12:17.543Z,5.99
2023-04-12T05:17:19.191Z,5.99
2023-04-12T05:22:21.780Z,5.70
2023-04-12T05:27:23.382Z,5.91
2023-04-12T05:32:25.792Z,6.09
2023-04-12T05:37:28.661Z,6.27
2023-04-12T05:42:30.321Z,5.88
2023-04-12T05:47:32.003Z,6.03
2023-04-12T05:52:33.680Z,6.07
2023-04-12T05:57:35.383Z,5.97
2023-04-12T06:02:37.179Z,6.34
2023-04-12T06:07:39.983Z,6.57
2023-04-12T06:12:41.929Z,6.48
2023-04-12T06:17:43.721Z,6.47
2023-04-12T06:22:45.441Z,6.73
2023-04-12T06:27:47.074Z,6.62
2023-04-12T06:32:48.760Z,6.86
2023-04-12T06:37:50.466Z,6.74
2023-04-12T06:42:52.152Z,6.74
2023-04-12T06:47:56.094Z,6.86
2023-04-12T06:52:57.730Z,7.10
2023-04-12T06:58:00.529Z,7.24
2023-04-12T07:03:02.277Z,7.25
2023-04-12T07:08:04.175Z,7.29
2023-04-12T07:13:08.337Z,7.39
2023-04-12T07:18:10.136Z,7.46
2023-04-12T07:23:11.723Z,7.46
2023-04-12T07:28:13.430Z,7.62
2023-04-12T07:33:19.469Z,7.69
2023-04-12T07:38:21.742Z,7.86
2023-04-12T07:43:23.893Z,7.97
2023-04-12T07:48:25.545Z,8.07
2023-04-12T07:53:28.752Z,8.07
2023-04-12T07:58:31.392Z,8.22
2023-04-12T08:03:33.214Z,8.53
2023-04-12T08:08:34.849Z,8.41
2023-04-12T08:13:36.442Z,8.57
2023-04-12T08:18:38.048Z,8.84
2023-04-12T08:23:39.690Z,8.90
2023-04-12T08:28:41.390Z,9.07
2023-04-12T08:33:43.009Z,9.56
2023-04-12T08:38:46.450Z,9.72
2023-04-12T08:43:48.862Z,9.67
2023-04-12T08:48:54.628Z,9.68
2023-04-12T08:53:56.568Z,9.91
2023-04-12T08:59:00.718Z,9.79
2023-04-12T09:04:06.953Z,9.87
2023-04-12T09:09:09.104Z,9.88
2023-04-12T09:14:25.666Z,10.04
2023-04-12T09:19:34.216Z,9.99
2023-04-12T09:24:46.645Z,11.78
2023-04-12T09:29:52.275Z,12.45
2023-04-12T09:34:58.678Z,11.76
2023-04-12T09:40:05.372Z,11.29
2023-04-12T09:45:19.121Z,11.10
2023-04-12T09:50:23.060Z,12.25
2023-04-12T09:55:29.814Z,10.95
2023-04-12T10:00:34.256Z,11.75
2023-04-12T10:05:38.623Z,12.17
2023-04-12T10:10:40.770Z,11.87
2023-04-12T10:15:45.695Z,12.12
2023-04-12T10:20:47.853Z,12.39
2023-04-12T10:25:50.475Z,12.16
2023-04-12T10:30:54.615Z,12.63
2023-04-12T10:36:00.817Z,12.25
2023-04-12T10:41:18.048Z,12.44
2023-04-12T10:46:38.364Z,12.83
2023-04-12T10:52:03.803Z,12.89
2023-04-12T10:57:06.843Z,12.31
2023-04-12T11:02:12.113Z,12.77
2023-04-12T11:07:14.561Z,12.90
2023-04-12T11:12:16.925Z,13.19
2023-04-12T11:17:18.710Z,13.05
2023-04-12T11:22:22.418Z,12.35
2023-04-12T11:27:25.853Z,12.55
2023-04-12T11:32:30.337Z,12.61
2023-04-12T11:37:32.117Z,12.41
2023-04-12T11:42:33.938Z,12.88
2023-04-12T11:47:35.971Z,12.75
2023-04-12T11:52:37.747Z,12.96
2023-04-12T11:57:39.610Z,12.97
2023-04-12T12:02:49.289Z,12.96
2023-04-12T12:07:58.888Z,12.57
2023-04-12T12:13:01.778Z,12.85
2023-04-12T12:18:03.628Z,12.75
2023-04-12T12:23:05.320Z,13.24
2023-04-12T12:28:12.791Z,13.67
2023-04-12T12:33:20.861Z,13.53
2023-04-12T12:38:29.035Z,13.43
2023-04-12T12:43:34.065Z,13.81
2023-04-12T12:48:39.899Z,13.34
2023-04-12T12:53:41.818Z,13.23
2023-04-12T12:58:43.502Z,13.65
2023-04-12T13:03:45.243Z,13.76
2023-04-12T13:08:46.998Z,13.22
2023-04-12T13:13:48.706Z,13.29
2023-04-12T13:18:50.277Z,13.57
2023-04-12T13:23:51.887Z,13.53
2023-04-12T13:28:53.579Z,13.47
2023-04-12T13:33:55.383Z,13.73
2023-04-12T13:38:57.321Z,14.00
2023-04-12T13:43:59.282Z,13.49
2023-04-12T13:49:01.097Z,13.86
2023-04-12T13:54:03.130Z,14.14
2023-04-12T13:59:04.823Z,13.97
2023-04-12T14:04:07.644Z,13.91
2023-04-12T14:09:09.555Z,14.38
2023-04-12T14:14:11.235Z,14.54
2023-04-12T14:19:12.934Z,14.07
2023-04-12T14:24:18.301Z,14.52
2023-04-12T14:29:19.995Z,14.06
2023-04-12T14:34:21.687Z,14.69
2023-04-12T14:39:24.458Z,14.63
2023-04-12T14:44:26.443Z,14.62
2023-04-12T14:49:32.438Z,14.73
2023-04-12T14:54:34.951Z,14.61
2023-04-12T14:59:36.790Z,14.67
2023-04-12T15:04:38.583Z,14.67
2023-04-12T15:09:40.287Z,14.65
2023-04-12T15:14:41.978Z,14.55
2023-04-12T15:19:43.789Z,14.65
2023-04-12T15:24:45.454Z,14.11
2023-04-12T15:29:47.223Z,14.31
2023-04-12T15:34:48.801Z,14.32
2023-04-12T15:39:50.499Z,14.17
2023-04-12T15:44:52.092Z,14.09
2023-04-12T15:49:54.606Z,13.63
2023-04-12T15:54:56.468Z,13.95
2023-04-12T15:59:59.473Z,13.90
2023-04-12T16:05:01.129Z,13.74
2023-04-12T16:10:03.641Z,13.86
2023-04-12T16:15:06.820Z,14.00
2023-04-12T16:20:10.969Z,13.66
2023-04-12T16:25:12.873Z,13.65
2023-04-12T16:30:16.219Z,13.39
2023-04-12T16:35:19.061Z,13.40
2023-04-12T16:40:21.504Z,13.22
2023-04-12T16:45:23.981Z,12.90
2023-04-12T16:50:29.113Z,12.64
2023-04-12T16:55:31.141Z,12.67
2023-04-12T17:00:33.304Z,12.65
2023-04-12T17:05:37.106Z,12.57
2023-04-12T17:10:39.120Z,12.47
2023-04-12T17:15:41.355Z,12.44
2023-04-12T17:20:43.654Z,12.40
2023-04-12T17:25:45.812Z,12.28
2023-04-12T17:30:48.342Z,12.33
2023-04-12T17:35:52.077Z,12.21
2023-04-12T17:40:54.291Z,12.16
2023-04-12T17:45:57.544Z,12.12
2023-04-12T17:51:00.724Z,12.08
2023-04-12T17:56:04.678Z,12.12
2023-04-12T18:01:06.764Z,12.02
2023-04-12T18:06:09.260Z,12.06
2023-04-12T18:11:13.452Z,12.02
2023-04-12T18:16:15.941Z,12.00
2023-04-12T18:21:21.446Z,11.96
2023-04-12T18:26:23.928Z,11.88
2023-04-12T18:31:26.787Z,11.86
2023-04-12T18:36:28.731Z,11.84
2023-04-12T18:41:30.972Z,11.78
2023-04-12T18:46:33.169Z,11.75
2023-04-12T18:51:36.569Z,11.71
2023-04-12T18:56:42.678Z,11.70
2023-04-12T19:01:45.999Z,11.70
2023-04-12T19:06:50.045Z,11.67
2023-04-12T19:11:55.945Z,11.66
2023-04-12T19:16:58.704Z,11.64
2023-04-12T19:22:00.975Z,11.59
2023-04-12T19:27:03.569Z,11.57
2023-04-12T19:32:08.234Z,11.58
2023-04-12T19:37:11.424Z,11.49
2023-04-12T19:42:15.748Z,11.48
2023-04-12T19:47:19.686Z,11.47
2023-04-12T19:52:23.684Z,11.43
2023-04-12T19:57:26.949Z,11.46
2023-04-12T20:02:30.407Z,11.35
2023-04-12T20:07:33.278Z,11.32
2023-04-12T20:12:35.929Z,11.41
2023-04-12T20:17:42.555Z,11.38
2023-04-12T20:22:46.242Z,11.30
2023-04-12T20:27:52.724Z,11.28
2023-04-12T20:32:55.025Z,11.24
2023-04-12T20:37:57.342Z,11.27
2023-04-12T20:43:00.214Z,11.29
2023-04-12T20:48:02.546Z,11.29
2023-04-12T20:53:05.710Z,11.22
2023-04-12T20:58:08.968Z,11.22
2023-04-12T21:03:12.428Z,11.25
2023-04-12T21:08:14.209Z,11.26
2023-04-12T21:13:16.578Z,11.21
2023-04-12T21:18:20.283Z,11.22
2023-04-12T21:23:23.926Z,11.14
2023-04-12T21:28:25.514Z,11.15
2023-04-12T21:33:27.191Z,11.13
2023-04-12T21:38:28.830Z,11.06
2023-04-12T21:43:30.549Z,10.97
2023-04-12T21:48:32.105Z,11.04
2023-04-12T21:53:33.690Z,10.86
2023-04-12T21:58:35.284Z,10.91
2023-04-12T22:03:37.442Z,10.95
2023-04-12T22:08:42.765Z,10.91
2023-04-12T22:13:46.788Z,10.91
2023-04-12T22:18:49.789Z,10.88
2023-04-12T22:23:54.160Z,10.94
2023-04-12T22:28:55.723Z,10.93
2023-04-12T22:33:57.664Z,10.90
2023-04-12T22:38:59.337Z,10.67
2023-04-12T22:44:01.633Z,10.77
2023-04-12T22:49:04.776Z,10.82
2023-04-12T22:54:09.431Z,10.84
2023-04-12T22:59:13.750Z,10.78
2023-04-12T23:04:16.324Z,10.85
2023-04-12T23:09:19.787Z,10.78
2023-04-12T23:14:21.362Z,10.78
2023-04-12T23:19:23.287Z,10.57
2023-04-12T23:24:25.132Z,10.74
2023-04-12T23:29:26.802Z,10.60
2023-04-12T23:34:30.800Z,10.61
2023-04-12T23:39:32.895Z,10.63
2023-04-12T23:44:34.768Z,10.69
2023-04-12T23:49:36.530Z,10.68
2023-04-12T23:54:38.123Z,10.64
2023-04-12T23:59:39.710Z,10.70
